createdAt,value
2022-12-09T00:01:11.645Z,95317.22
2022-12-09T00:03:40.499Z,95308.44
2022-12-09T00:06:10.388Z,95311.69
2022-12-09T00:08:38.715Z,95313.50
2022-12-09T00:11:07.428Z,95325.06
2022-12-09T00:13:36.056Z,95324.53
2022-12-09T00:16:08.666Z,95326.31
2022-12-09T00:18:37.564Z,95324.41
2022-12-09T00:21:13.455Z,95329.06
2022-12-09T00:23:42.029Z,95313.94
2022-12-09T00:26:10.503Z,95315.84
2022-12-09T00:28:39.519Z,95304.97
2022-12-09T00:31:10.017Z,95317.94
2022-12-09T00:33:38.229Z,95311.59
2022-12-09T00:36:07.366Z,95311.19
2022-12-09T00:38:35.649Z,95305.41
2022-12-09T00:41:04.099Z,95298.94
2022-12-09T00:43:32.741Z,95297.56
2022-12-09T00:46:01.495Z,95296.03
2022-12-09T00:48:34.325Z,95289.19
2022-12-09T00:51:02.886Z,95287.00
2022-12-09T00:53:31.189Z,95280.97
2022-12-09T00:55:59.693Z,95268.44
2022-12-09T00:58:28.290Z,95271.03
2022-12-09T01:00:56.758Z,95262.88
2022-12-09T01:03:25.355Z,95270.91
2022-12-09T01:05:56.080Z,95274.22
2022-12-09T01:08:24.372Z,95283.41
2022-12-09T01:10:52.717Z,95280.81
2022-12-09T01:13:21.148Z,95275.16
2022-12-09T01:15:49.464Z,95274.97
2022-12-09T01:18:17.864Z,95256.84
2022-12-09T01:20:46.160Z,95247.34
2022-12-09T01:23:15.790Z,95261.84
2022-12-09T01:25:44.231Z,95256.97
2022-12-09T01:28:12.599Z,95259.25
2022-12-09T01:30:40.883Z,95253.81
2022-12-09T01:33:09.916Z,95253.13
2022-12-09T01:35:41.550Z,95258.59
2022-12-09T01:38:10.112Z,95264.16
2022-12-09T01:40:39.722Z,95254.50
2022-12-09T01:43:14.869Z,95255.75
2022-12-09T01:45:44.169Z,95255.63
2022-12-09T01:48:14.689Z,95253.84
2022-12-09T01:50:48.023Z,95242.59
2022-12-09T01:53:17.515Z,95244.78
2022-12-09T01:55:47.464Z,95250.00
2022-12-09T01:58:16.136Z,95240.88
2022-12-09T02:00:44.588Z,95234.06
2022-12-09T02:03:13.727Z,95247.53
2022-12-09T02:05:42.718Z,95237.00
2022-12-09T02:08:13.187Z,95233.69
2022-12-09T02:10:48.305Z,95212.63
2022-12-09T02:13:24.627Z,95225.72
2022-12-09T02:15:55.250Z,95216.09
2022-12-09T02:18:26.944Z,95213.50
2022-12-09T02:20:58.821Z,95209.50
2022-12-09T02:23:31.361Z,95210.47
2022-12-09T02:26:06.990Z,95214.81
2022-12-09T02:29:04.451Z,95208.41
2022-12-09T02:31:45.452Z,95193.97
2022-12-09T02:34:18.588Z,95209.09
2022-12-09T02:36:55.178Z,95194.81
2022-12-09T02:39:27.702Z,95194.66
2022-12-09T02:41:57.821Z,95174.06
2022-12-09T02:44:26.962Z,95172.28
2022-12-09T02:46:56.355Z,95185.59
2022-12-09T02:49:26.840Z,95201.81
2022-12-09T02:51:55.948Z,95206.78
2022-12-09T02:54:25.682Z,95200.28
2022-12-09T02:56:58.525Z,95197.97
2022-12-09T02:59:26.877Z,95191.25
2022-12-09T03:02:01.889Z,95185.09
2022-12-09T03:04:32.991Z,95183.97
2022-12-09T03:07:12.716Z,95178.47
2022-12-09T03:09:43.817Z,95173.81
2022-12-09T03:12:13.282Z,95175.59
2022-12-09T03:14:43.249Z,95159.50
2022-12-09T03:17:14.974Z,95157.88
2022-12-09T03:19:47.263Z,95158.41
2022-12-09T03:22:18.250Z,95146.63
2022-12-09T03:24:50.905Z,95153.06
2022-12-09T03:27:26.059Z,95141.28
2022-12-09T03:29:55.181Z,95150.75
2022-12-09T03:32:26.750Z,95146.88
2022-12-09T03:35:01.081Z,95147.84
2022-12-09T03:37:29.747Z,95154.31
2022-12-09T03:39:59.749Z,95152.94
2022-12-09T03:42:32.492Z,95149.63
2022-12-09T03:45:03.547Z,95133.16
2022-12-09T03:47:31.977Z,95130.41
2022-12-09T03:50:01.743Z,95133.56
2022-12-09T03:52:33.754Z,95135.94
2022-12-09T03:55:06.874Z,95139.16
2022-12-09T03:57:37.684Z,95139.19
2022-12-09T04:00:08.184Z,95127.91
2022-12-09T04:02:36.963Z,95119.28
2022-12-09T04:05:08.051Z,95119.00
2022-12-09T04:07:36.600Z,95113.25
2022-12-09T04:10:06.651Z,95111.19
2022-12-09T04:12:35.212Z,95116.94
2022-12-09T04:15:03.526Z,95113.13
2022-12-09T04:17:32.072Z,95117.78
2022-12-09T04:20:00.688Z,95126.84
2022-12-09T04:22:30.708Z,95114.38
2022-12-09T04:24:59.051Z,95120.69
2022-12-09T04:27:27.508Z,95109.03
2022-12-09T04:29:55.814Z,95104.59
2022-12-09T04:32:24.528Z,95111.88
2022-12-09T04:34:53.136Z,95114.66
2022-12-09T04:37:21.475Z,95106.25
2022-12-09T04:39:51.396Z,95098.16
2022-12-09T04:42:19.889Z,95098.31
2022-12-09T04:44:48.217Z,95102.97
2022-12-09T04:47:16.930Z,95094.88
2022-12-09T04:49:45.440Z,95093.78
2022-12-09T04:52:13.723Z,95095.00
2022-12-09T04:54:42.313Z,95088.28
2022-12-09T04:57:12.481Z,95081.72
2022-12-09T04:59:40.842Z,95086.09
2022-12-09T05:02:09.241Z,95073.56
2022-12-09T05:04:37.863Z,95079.91
2022-12-09T05:07:06.464Z,95080.19
2022-12-09T05:09:35.310Z,95073.06
2022-12-09T05:12:04.173Z,95070.88
2022-12-09T05:14:33.923Z,95066.19
2022-12-09T05:17:03.812Z,95069.22
2022-12-09T05:19:32.227Z,95073.19
2022-12-09T05:22:00.620Z,95065.13
2022-12-09T05:24:29.004Z,95060.41
2022-12-09T05:26:57.612Z,95054.50
2022-12-09T05:29:25.969Z,95047.13
2022-12-09T05:31:56.014Z,95040.53
2022-12-09T05:34:24.499Z,95038.91
2022-12-09T05:36:53.610Z,95035.47
2022-12-09T05:39:22.139Z,95027.63
2022-12-09T05:41:50.631Z,95033.94
2022-12-09T05:44:18.992Z,95025.41
2022-12-09T05:46:47.695Z,95034.88
2022-12-09T05:49:17.714Z,95024.41
2022-12-09T05:51:46.163Z,95033.16
2022-12-09T05:54:14.510Z,95014.63
2022-12-09T05:56:47.873Z,95021.88
2022-12-09T05:59:16.935Z,95028.94
2022-12-09T06:01:45.283Z,95026.25
2022-12-09T06:04:13.937Z,95018.28
2022-12-09T06:06:44.269Z,95016.34
2022-12-09T06:09:13.285Z,95028.81
2022-12-09T06:11:42.395Z,95021.94
2022-12-09T06:14:12.077Z,95022.81
2022-12-09T06:16:40.668Z,95020.19
2022-12-09T06:19:11.482Z,95025.13
2022-12-09T06:21:40.997Z,95019.59
2022-12-09T06:24:11.710Z,95008.41
2022-12-09T06:26:40.069Z,95010.44
2022-12-09T06:29:08.682Z,95014.94
2022-12-09T06:31:37.246Z,95012.34
2022-12-09T06:34:06.108Z,95002.84
2022-12-09T06:36:34.579Z,95005.06
2022-12-09T06:39:10.200Z,95001.75
2022-12-09T06:41:41.449Z,94997.19
2022-12-09T06:44:10.453Z,94991.88
2022-12-09T06:46:39.120Z,94994.97
2022-12-09T06:49:07.976Z,94994.59
2022-12-09T06:51:36.487Z,94993.16
2022-12-09T06:54:07.086Z,94994.19
2022-12-09T06:56:35.478Z,94987.09
2022-12-09T06:59:08.639Z,94982.69
2022-12-09T07:01:37.953Z,94980.94
2022-12-09T07:04:07.734Z,94985.16
2022-12-09T07:06:38.317Z,94979.22
2022-12-09T07:09:08.918Z,94986.50
2022-12-09T07:11:37.808Z,94980.72
2022-12-09T07:14:06.219Z,94977.97
2022-12-09T07:16:36.957Z,94975.78
2022-12-09T07:19:06.252Z,94979.03
2022-12-09T07:21:35.222Z,94979.69
2022-12-09T07:24:04.688Z,94971.78
2022-12-09T07:26:33.633Z,94983.31
2022-12-09T07:29:03.110Z,94999.53
2022-12-09T07:31:31.974Z,94995.88
2022-12-09T07:34:03.033Z,94992.13
2022-12-09T07:36:33.039Z,95000.59
2022-12-09T07:39:03.280Z,94998.97
2022-12-09T07:41:31.819Z,94997.88
2022-12-09T07:44:00.488Z,94999.38
2022-12-09T07:46:29.297Z,94995.13
2022-12-09T07:48:58.667Z,94990.25
2022-12-09T07:51:29.564Z,94984.53
2022-12-09T07:53:58.665Z,94982.66
2022-12-09T07:56:28.383Z,94970.91
2022-12-09T07:58:57.409Z,94971.72
2022-12-09T08:01:30.134Z,94969.06
2022-12-09T08:03:59.378Z,94961.50
2022-12-09T08:06:30.737Z,94958.50
2022-12-09T08:09:00.698Z,94967.84
2022-12-09T08:11:31.028Z,94959.72
2022-12-09T08:14:07.224Z,94956.72
2022-12-09T08:16:37.572Z,94957.03
2022-12-09T08:19:06.241Z,94959.25
2022-12-09T08:21:36.775Z,94958.00
2022-12-09T08:24:07.876Z,94962.41
2022-12-09T08:26:37.504Z,94963.31
2022-12-09T08:29:09.924Z,94955.38
2022-12-09T08:31:41.626Z,94957.13
2022-12-09T08:34:11.137Z,94949.34
2022-12-09T08:36:41.126Z,94949.38
2022-12-09T08:39:10.942Z,94954.53
2022-12-09T08:41:40.162Z,94960.47
2022-12-09T08:44:11.368Z,94971.28
2022-12-09T08:46:42.054Z,94964.31
2022-12-09T08:49:11.355Z,94970.31
2022-12-09T08:51:41.941Z,94961.94
2022-12-09T08:54:10.717Z,94955.16
2022-12-09T08:56:39.483Z,94952.41
2022-12-09T08:59:08.350Z,94949.13
2022-12-09T09:01:37.274Z,94938.69
2022-12-09T09:04:08.083Z,94951.47
2022-12-09T09:06:37.428Z,94940.75
2022-12-09T09:09:10.876Z,94938.09
2022-12-09T09:11:39.853Z,94944.13
2022-12-09T09:14:10.897Z,94935.03
2022-12-09T09:16:39.822Z,94935.66
2022-12-09T09:19:08.886Z,94939.06
2022-12-09T09:21:37.837Z,94939.03
2022-12-09T09:24:12.094Z,94934.78
2022-12-09T09:26:42.590Z,94945.91
2022-12-09T09:29:12.677Z,94945.28
2022-12-09T09:31:41.949Z,94946.16
2022-12-09T09:34:11.282Z,94950.97
2022-12-09T09:36:41.614Z,94952.25
2022-12-09T09:39:11.853Z,94951.59
2022-12-09T09:41:45.502Z,94939.88
2022-12-09T09:44:20.505Z,94931.16
2022-12-09T09:46:50.709Z,94928.84
2022-12-09T09:49:24.532Z,94928.34
2022-12-09T09:51:53.396Z,94931.81
2022-12-09T09:54:23.487Z,94937.25
2022-12-09T09:56:55.940Z,94932.56
2022-12-09T09:59:38.546Z,94929.31
2022-12-09T10:02:18.332Z,94923.38
2022-12-09T10:04:55.669Z,94914.88
2022-12-09T10:07:29.150Z,94898.13
2022-12-09T10:10:05.579Z,94903.44
2022-12-09T10:12:41.627Z,94903.16
2022-12-09T10:15:13.345Z,94898.72
2022-12-09T10:17:48.923Z,94893.25
2022-12-09T10:20:19.796Z,94892.00
2022-12-09T10:22:51.542Z,94887.03
2022-12-09T10:25:24.978Z,94880.19
2022-12-09T10:27:56.807Z,94885.00
2022-12-09T10:30:29.941Z,94889.53
2022-12-09T10:33:02.133Z,94883.81
2022-12-09T10:35:32.939Z,94882.50
2022-12-09T10:38:08.293Z,94877.16
2022-12-09T10:40:46.893Z,94876.97
2022-12-09T10:43:38.864Z,94884.31
2022-12-09T10:46:19.625Z,94879.75
2022-12-09T10:48:54.076Z,94864.28
2022-12-09T10:51:25.956Z,94879.91
2022-12-09T10:53:56.840Z,94859.28
2022-12-09T10:56:28.861Z,94866.88
2022-12-09T10:59:10.704Z,94868.09
2022-12-09T11:01:50.829Z,94857.91
2022-12-09T11:04:25.124Z,94857.06
2022-12-09T11:06:59.392Z,94849.75
2022-12-09T11:09:32.244Z,94844.69
2022-12-09T11:12:03.959Z,94847.81
2022-12-09T11:14:35.863Z,94838.34
2022-12-09T11:17:15.897Z,94822.22
2022-12-09T11:19:47.937Z,94816.75
2022-12-09T11:22:24.941Z,94817.53
2022-12-09T11:24:56.748Z,94812.50
2022-12-09T11:27:32.613Z,94810.94
2022-12-09T11:30:12.714Z,94806.50
2022-12-09T11:32:59.819Z,94807.31
2022-12-09T11:35:35.724Z,94798.09
2022-12-09T11:38:14.138Z,94788.25
2022-12-09T11:40:42.468Z,94787.69
2022-12-09T11:43:12.089Z,94780.59
2022-12-09T11:45:41.432Z,94774.09
2022-12-09T11:48:32.833Z,94776.31
2022-12-09T11:51:03.422Z,94776.53
2022-12-09T11:53:33.090Z,94774.88
2022-12-09T11:56:05.630Z,94774.28
2022-12-09T11:58:40.795Z,94771.97
2022-12-09T12:01:13.303Z,94775.06
2022-12-09T12:03:47.286Z,94775.41
2022-12-09T12:06:20.629Z,94773.69
2022-12-09T12:08:52.128Z,94776.66
2022-12-09T12:11:22.585Z,94779.47
2022-12-09T12:13:55.435Z,94780.34
2022-12-09T12:16:28.569Z,94768.75
2022-12-09T12:19:01.990Z,94772.94
2022-12-09T12:21:42.974Z,94764.53
2022-12-09T12:24:33.453Z,94762.72
2022-12-09T12:27:11.975Z,94763.50
2022-12-09T12:29:47.657Z,94753.75
2022-12-09T12:32:25.113Z,94752.72
2022-12-09T12:35:04.606Z,94750.56
2022-12-09T12:37:43.581Z,94755.53
2022-12-09T12:40:22.011Z,94747.84
2022-12-09T12:43:21.081Z,94749.44
2022-12-09T12:46:10.445Z,94747.44
2022-12-09T12:48:46.107Z,94749.97
2022-12-09T12:51:22.435Z,94736.75
2022-12-09T12:53:56.462Z,94734.78
2022-12-09T12:56:25.866Z,94743.09
2022-12-09T12:59:02.996Z,94742.44
2022-12-09T13:01:35.169Z,94745.91
2022-12-09T13:04:13.464Z,94745.41
2022-12-09T13:06:45.624Z,94752.28
2022-12-09T13:09:16.319Z,94746.72
2022-12-09T13:11:54.482Z,94745.59
2022-12-09T13:14:24.704Z,94741.97
2022-12-09T13:16:54.433Z,94731.16
2022-12-09T13:19:26.842Z,94734.81
2022-12-09T13:21:55.480Z,94727.91
2022-12-09T13:24:27.401Z,94732.16
2022-12-09T13:27:00.839Z,94727.75
2022-12-09T13:29:36.882Z,94728.53
2022-12-09T13:32:19.931Z,94732.16
2022-12-09T13:34:52.597Z,94724.44
2022-12-09T13:37:34.519Z,94723.47
2022-12-09T13:40:04.065Z,94722.69
2022-12-09T13:42:56.354Z,94724.47
2022-12-09T13:45:30.379Z,94738.19
2022-12-09T13:48:02.270Z,94728.72
2022-12-09T13:50:36.270Z,94729.72
2022-12-09T13:53:06.232Z,94746.88
2022-12-09T13:55:40.879Z,94735.78
2022-12-09T13:58:30.703Z,94733.47
2022-12-09T14:01:04.740Z,94733.28
2022-12-09T14:03:36.068Z,94741.94
2022-12-09T14:06:07.953Z,94738.03
2022-12-09T14:08:41.583Z,94739.00
2022-12-09T14:11:47.073Z,94733.31
2022-12-09T14:14:46.884Z,94740.84
2022-12-09T14:17:21.721Z,94747.72
2022-12-09T14:19:56.328Z,94750.34
2022-12-09T14:22:35.029Z,94746.06
2022-12-09T14:25:50.959Z,94749.00
2022-12-09T14:28:37.677Z,94741.66
2022-12-09T14:31:08.986Z,94746.75
2022-12-09T14:33:39.202Z,94753.75
2022-12-09T14:36:21.517Z,94758.19
2022-12-09T14:39:22.573Z,94750.31
2022-12-09T14:41:50.259Z,94754.25
2022-12-09T14:44:24.551Z,94758.84
2022-12-09T14:46:54.581Z,94758.19
2022-12-09T14:49:23.640Z,94753.94
2022-12-09T14:51:53.963Z,94757.88
2022-12-09T14:54:25.375Z,94760.66
2022-12-09T14:56:58.032Z,94760.00
2022-12-09T14:59:28.808Z,94757.69
2022-12-09T15:01:58.633Z,94769.31
2022-12-09T15:04:30.940Z,94765.06
2022-12-09T15:07:26.062Z,94774.72
2022-12-09T15:09:56.289Z,94774.56
2022-12-09T15:12:28.344Z,94760.16
2022-12-09T15:14:58.927Z,94760.31
2022-12-09T15:17:27.934Z,94767.84
2022-12-09T15:20:00.773Z,94773.75
2022-12-09T15:22:32.728Z,94776.50
2022-12-09T15:25:03.154Z,94779.78
2022-12-09T15:27:31.705Z,94781.28
2022-12-09T15:29:59.961Z,94784.88
2022-12-09T15:32:30.358Z,94793.03
2022-12-09T15:35:17.255Z,94796.16
2022-12-09T15:37:47.656Z,94792.69
2022-12-09T15:40:22.137Z,94792.19
2022-12-09T15:42:53.204Z,94785.22
2022-12-09T15:45:23.704Z,94780.78
2022-12-09T15:47:54.862Z,94783.06
2022-12-09T15:50:25.154Z,94788.66
2022-12-09T15:52:56.306Z,94784.22
2022-12-09T15:55:27.290Z,94788.66
2022-12-09T15:57:58.086Z,94784.88
2022-12-09T16:00:26.499Z,94789.63
2022-12-09T16:02:54.872Z,94786.03
2022-12-09T16:05:25.241Z,94786.31
2022-12-09T16:07:57.280Z,94792.03
2022-12-09T16:10:27.763Z,94789.09
2022-12-09T16:13:07.421Z,94782.38
2022-12-09T16:15:47.780Z,94791.72
2022-12-09T16:18:19.702Z,94784.47
2022-12-09T16:21:02.172Z,94797.94
2022-12-09T16:23:32.079Z,94799.88
2022-12-09T16:26:07.286Z,94805.94
2022-12-09T16:28:36.077Z,94811.69
2022-12-09T16:31:17.950Z,94809.06
2022-12-09T16:33:49.111Z,94811.19
2022-12-09T16:36:20.336Z,94814.97
2022-12-09T16:39:24.763Z,94808.09
2022-12-09T16:41:58.786Z,94811.06
2022-12-09T16:44:31.224Z,94806.16
2022-12-09T16:47:11.996Z,94817.31
2022-12-09T16:49:41.406Z,94819.13
2022-12-09T16:52:13.004Z,94820.75
2022-12-09T16:54:43.784Z,94806.44
2022-12-09T16:57:16.386Z,94813.66
2022-12-09T16:59:45.705Z,94820.91
2022-12-09T17:02:18.930Z,94816.16
2022-12-09T17:04:47.367Z,94814.19
2022-12-09T17:07:15.721Z,94828.63
2022-12-09T17:09:45.369Z,94835.34
2022-12-09T17:12:13.720Z,94834.97
2022-12-09T17:14:42.146Z,94836.47
2022-12-09T17:17:10.542Z,94845.97
2022-12-09T17:19:38.875Z,94841.88
2022-12-09T17:22:07.136Z,94848.75
2022-12-09T17:24:35.517Z,94845.81
2022-12-09T17:27:05.279Z,94849.34
2022-12-09T17:29:33.667Z,94854.13
2022-12-09T17:32:02.011Z,94856.13
2022-12-09T17:34:30.337Z,94853.81
2022-12-09T17:36:59.139Z,94850.38
2022-12-09T17:39:27.429Z,94853.22
2022-12-09T17:41:55.827Z,94854.03
2022-12-09T17:44:25.535Z,94854.81
2022-12-09T17:46:53.869Z,94860.88
2022-12-09T17:49:22.370Z,94865.97
2022-12-09T17:51:50.635Z,94872.19
2022-12-09T17:54:18.907Z,94868.88
2022-12-09T17:56:47.382Z,94875.94
2022-12-09T17:59:16.839Z,94884.16
2022-12-09T18:01:47.210Z,94882.84
2022-12-09T18:04:15.846Z,94879.50
2022-12-09T18:06:45.602Z,94886.44
2022-12-09T18:09:15.698Z,94888.25
2022-12-09T18:11:44.734Z,94888.75
2022-12-09T18:14:13.000Z,94899.72
2022-12-09T18:16:41.357Z,94893.19
2022-12-09T18:19:15.241Z,94902.84
2022-12-09T18:21:43.818Z,94903.50
2022-12-09T18:24:12.260Z,94907.13
2022-12-09T18:26:42.243Z,94905.06
2022-12-09T18:29:11.387Z,94908.91
2022-12-09T18:31:39.940Z,94914.50
2022-12-09T18:34:08.292Z,94924.81
2022-12-09T18:36:37.995Z,94933.81
2022-12-09T18:39:06.617Z,94924.44
2022-12-09T18:41:35.658Z,94923.50
2022-12-09T18:44:05.942Z,94920.84
2022-12-09T18:46:36.445Z,94927.53
2022-12-09T18:49:05.403Z,94927.38
2022-12-09T18:51:33.868Z,94940.88
2022-12-09T18:54:05.394Z,94939.28
2022-12-09T18:56:34.166Z,94933.19
2022-12-09T18:59:07.495Z,94924.00
2022-12-09T19:01:39.405Z,94922.38
2022-12-09T19:04:11.448Z,94927.06
2022-12-09T19:06:41.452Z,94933.97
2022-12-09T19:09:14.996Z,94937.66
2022-12-09T19:11:44.297Z,94930.88
2022-12-09T19:14:14.044Z,94919.94
2022-12-09T19:16:43.179Z,94922.16
2022-12-09T19:19:13.384Z,94914.97
2022-12-09T19:21:41.895Z,94918.41
2022-12-09T19:24:15.001Z,94920.06
2022-12-09T19:26:43.861Z,94911.00
2022-12-09T19:29:13.332Z,94904.16
2022-12-09T19:31:43.258Z,94895.41
2022-12-09T19:34:14.416Z,94898.41
2022-12-09T19:36:43.611Z,94909.72
2022-12-09T19:39:14.260Z,94917.66
2022-12-09T19:41:42.982Z,94926.00
2022-12-09T19:44:11.980Z,94938.03
2022-12-09T19:46:40.777Z,94939.97
2022-12-09T19:49:09.456Z,94949.03
2022-12-09T19:51:37.758Z,94948.41
2022-12-09T19:54:06.346Z,94958.41
2022-12-09T19:56:35.962Z,94953.69
2022-12-09T19:59:05.050Z,94957.28
2022-12-09T20:01:34.913Z,94954.50
2022-12-09T20:04:19.064Z,94960.41
2022-12-09T20:06:48.082Z,94961.06
2022-12-09T20:09:24.046Z,94960.88
2022-12-09T20:11:54.200Z,94963.69
2022-12-09T20:14:22.481Z,94965.84
2022-12-09T20:16:50.817Z,94964.53
2022-12-09T20:19:19.828Z,94963.84
2022-12-09T20:21:48.850Z,94961.72
2022-12-09T20:24:17.128Z,94949.19
2022-12-09T20:26:45.441Z,94966.00
2022-12-09T20:29:15.267Z,94968.25
2022-12-09T20:31:44.165Z,94971.97
2022-12-09T20:34:14.888Z,94973.19
2022-12-09T20:36:43.995Z,94975.47
2022-12-09T20:39:15.223Z,94961.22
2022-12-09T20:41:44.500Z,94968.28
2022-12-09T20:44:14.923Z,94980.25
2022-12-09T20:46:47.027Z,94980.56
2022-12-09T20:49:15.370Z,94973.00
2022-12-09T20:51:45.263Z,94970.59
2022-12-09T20:54:14.687Z,94965.56
2022-12-09T20:56:43.108Z,94966.72
2022-12-09T20:59:12.508Z,94968.25
2022-12-09T21:01:43.605Z,94960.56
2022-12-09T21:04:11.959Z,94955.97
2022-12-09T21:06:41.398Z,94962.22
2022-12-09T21:09:11.514Z,94964.66
2022-12-09T21:11:40.125Z,94972.69
2022-12-09T21:14:08.669Z,94976.50
2022-12-09T21:16:39.647Z,94990.59
2022-12-09T21:19:14.549Z,94989.41
2022-12-09T21:21:46.673Z,94991.22
2022-12-09T21:24:15.699Z,94989.09
2022-12-09T21:26:44.370Z,94979.91
2022-12-09T21:29:12.991Z,94985.31
2022-12-09T21:31:42.896Z,94985.00
2022-12-09T21:34:12.905Z,94988.78
2022-12-09T21:36:43.396Z,94990.09
2022-12-09T21:39:13.218Z,94992.72
2022-12-09T21:41:41.940Z,94986.00
2022-12-09T21:44:14.330Z,94984.19
2022-12-09T21:46:43.056Z,94986.50
2022-12-09T21:49:13.101Z,94980.09
2022-12-09T21:51:41.608Z,94987.47
2022-12-09T21:54:09.923Z,94997.81
2022-12-09T21:56:38.531Z,94996.66
2022-12-09T21:59:07.634Z,94999.75
2022-12-09T22:01:37.631Z,95001.41
2022-12-09T22:04:07.747Z,94997.31
2022-12-09T22:06:37.607Z,95008.13
2022-12-09T22:09:07.844Z,95005.03
2022-12-09T22:11:37.898Z,94998.94
2022-12-09T22:14:07.292Z,95007.63
2022-12-09T22:16:37.402Z,94999.59
2022-12-09T22:19:08.158Z,95006.97
2022-12-09T22:21:37.775Z,95006.66
2022-12-09T22:24:07.697Z,94997.47
2022-12-09T22:26:36.429Z,95015.78
2022-12-09T22:29:05.696Z,95002.72
2022-12-09T22:31:36.454Z,94991.72
2022-12-09T22:34:06.555Z,94993.69
2022-12-09T22:36:37.027Z,94997.59
2022-12-09T22:39:07.737Z,94990.41
2022-12-09T22:41:36.303Z,95002.22
2022-12-09T22:44:04.854Z,94995.47
2022-12-09T22:46:34.628Z,95002.34
2022-12-09T22:49:04.717Z,94995.25
2022-12-09T22:51:34.820Z,94998.50
2022-12-09T22:54:05.298Z,94998.50
2022-12-09T22:56:35.012Z,94995.88
2022-12-09T22:59:03.425Z,94989.63
2022-12-09T23:01:33.214Z,94990.38
2022-12-09T23:04:02.309Z,94990.53
2022-12-09T23:06:31.087Z,94981.22
2022-12-09T23:08:59.390Z,94984.03
2022-12-09T23:11:29.376Z,94977.13
2022-12-09T23:13:59.592Z,94988.03
2022-12-09T23:16:28.269Z,94989.47
2022-12-09T23:18:58.021Z,94990.00
2022-12-09T23:21:28.195Z,94998.72
2022-12-09T23:23:58.017Z,95001.53
2022-12-09T23:26:28.289Z,95004.25
2022-12-09T23:29:00.820Z,95011.03
2022-12-09T23:31:30.809Z,95008.56
2022-12-09T23:33:59.525Z,95006.25
2022-12-09T23:36:31.597Z,94995.97
2022-12-09T23:39:00.607Z,95008.41
2022-12-09T23:41:29.307Z,95009.69
2022-12-09T23:43:57.596Z,95028.56
2022-12-09T23:46:30.692Z,95024.63
2022-12-09T23:48:59.061Z,95029.13
2022-12-09T23:51:30.438Z,95020.34
2022-12-09T23:54:00.465Z,95020.09
2022-12-09T23:56:30.332Z,95014.00
2022-12-09T23:59:00.088Z,95006.72
